Авиационная погода в Нижнем Новгороде

Регион: 
Погода METAR: 
UWGG 061030Z 09002MPS 9999 -SN OVC010 M09/M12 Q1026 R18L/420048 NOSIG
Время наблюдения
2021-12-06T10:30:00Z
Температура C
-9.0
Точка росы
-12.0
Направление ветра
90
Скорость ветра (узлы)
4
Метео видимость
6.21
Явления погоды
-SN
Условия полета
MVFR
Аэропорт подробнее: